Birchwood, TN (37308)

12:49 AM EDT on November 01, 2014 (GMT -0400)
Soddy Daisy | Change Station
CLOSE
Current Station
Personal Weather Station
Location: Soddy-Daisy, TN
Elevation: 814 ft
Nearby Weather Stations
Active Advisory: Freeze Watch

Elev 814 ft 35.32 °N, 85.13 °W | Updated 8 minutes ago

Overcast
Overcast
37.0 °F
Feels Like 37 °F
N
1.7
Wind Variable Wind from SSE

Today
High -- | Low -- °F
--% Chance of Precip.
Yesterday
High -- | Low -- °F
Precip. -- in
8:01 AM 6:45 PM
Waxing Gibbous, 62% visible
Pressure 30.02 in
Visibility 9.0 miles
Clouds Few 1000 ft
Scattered Clouds 2000 ft
Mostly Cloudy 3500 ft
Windchill 37 °F
Dew Point 32 °F
Humidity 82%
Rainfall 0.00 in
Snow Depth Not available.
UV 0 out of 12
Pollen .90 out of 12
Air Quality Not available.
Flu Activity Not available.
METAR KRZR 010435Z AUTO 01011KT 9SM FEW010 SCT020 BKN035 03/M01 A3002 RMK

More Conditions Fewer Conditions

Pressure 30.02 in
Visibility 9.0 miles
Clouds Few 1000 ft
Scattered Clouds 2000 ft
Mostly Cloudy 3500 ft
Windchill 37 °F
Dew Point 32 °F
Humidity 82%
Rainfall 0.00 in
Snow Depth Not available.
UV 0 out of 12
Pollen .90 out of 12
Air Quality Not available.
Flu Activity Not available.
METAR KRZR 010435Z AUTO 01011KT 9SM FEW010 SCT020 BKN035 03/M01 A3002 RMK

More Conditions Fewer Conditions

10-Day Weather Forecast

Almanac

Astronomy

Nov. 01, 2014 Rise Set
Actual Time
Civil Twilight
Nautical Twilight
Astronomical Twilight
Moon
Length of Visible Light
Length of Day
Tomorrow will be .
, % of the Moon is Illuminated

Today's Extremes

State Highs State Lows

Community

WunderPhotos

Upload Photos

1,766,854 photos uploaded!

WunderBlogs® & News

Nearby

Air Quality

  Air Quality AQ Index Pollutant
Not available.

Snow Depth

Station Depth Elevation

Earthquake Activity

City Distance Mag. Time & Date
Minimum magnitude displayed is 2.5.

Coastal Water Temperatures

Place Temperature

Nearby Weather Stations